sensor_id;sensor_type;location;lat;lon;timestamp;pressure;altitude;pressure_sealevel;temperature;humidity
21980;BME280;11154;48.558;9.234;2022-10-16T00:01:06;97401.34;;;17.69;100.00
21980;BME280;11154;48.558;9.234;2022-10-16T00:03:09;97398.84;;;17.68;100.00
21980;BME280;11154;48.558;9.234;2022-10-16T00:05:11;97397.22;;;17.67;100.00
21980;BME280;11154;48.558;9.234;2022-10-16T00:07:12;97410.03;;;17.65;100.00
21980;BME280;11154;48.558;9.234;2022-10-16T00:09:14;97400.94;;;17.66;100.00
21980;BME280;11154;48.558;9.234;2022-10-16T00:11:20;97399.47;;;17.63;100.00
21980;BME280;11154;48.558;9.234;2022-10-16T00:13:22;97396.97;;;17.62;100.00
21980;BME280;11154;48.558;9.234;2022-10-16T00:15:23;97394.28;;;17.62;100.00
21980;BME280;11154;48.558;9.234;2022-10-16T00:17:25;97393.47;;;17.61;100.00
21980;BME280;11154;48.558;9.234;2022-10-16T00:19:26;97402.59;;;17.67;100.00
21980;BME280;11154;48.558;9.234;2022-10-16T00:21:30;97406.69;;;17.89;100.00
21980;BME280;11154;48.558;9.234;2022-10-16T00:23:31;97412.88;;;17.96;100.00
21980;BME280;11154;48.558;9.234;2022-10-16T00:25:33;97417.63;;;17.94;100.00
21980;BME280;11154;48.558;9.234;2022-10-16T00:27:36;97418.25;;;17.96;100.00
21980;BME280;11154;48.558;9.234;2022-10-16T00:29:37;97423.25;;;17.99;100.00
21980;BME280;11154;48.558;9.234;2022-10-16T00:31:39;97428.63;;;17.99;100.00
21980;BME280;11154;48.558;9.234;2022-10-16T00:33:41;97419.28;;;17.95;100.00
21980;BME280;11154;48.558;9.234;2022-10-16T00:35:42;97419.72;;;17.92;100.00
21980;BME280;11154;48.558;9.234;2022-10-16T00:37:44;97418.06;;;17.91;100.00
21980;BME280;11154;48.558;9.234;2022-10-16T00:39:46;97410.84;;;17.85;100.00
21980;BME280;11154;48.558;9.234;2022-10-16T00:41:48;97420.34;;;17.81;100.00
21980;BME280;11154;48.558;9.234;2022-10-16T00:43:52;97425.53;;;17.82;100.00
21980;BME280;11154;48.558;9.234;2022-10-16T00:45:54;97426.97;;;17.85;100.00
21980;BME280;11154;48.558;9.234;2022-10-16T00:47:56;97423.66;;;17.83;100.00
21980;BME280;11154;48.558;9.234;2022-10-16T00:50:00;97410.44;;;17.62;100.00
21980;BME280;11154;48.558;9.234;2022-10-16T00:52:03;97412.28;;;17.42;100.00
21980;BME280;11154;48.558;9.234;2022-10-16T00:54:09;97416.22;;;17.33;100.00
21980;BME280;11154;48.558;9.234;2022-10-16T00:56:11;97409.97;;;17.26;100.00
21980;BME280;11154;48.558;9.234;2022-10-16T00:58:13;97408.75;;;17.22;100.00
21980;BME280;11154;48.558;9.234;2022-10-16T01:00:19;97411.19;;;17.17;100.00
21980;BME280;11154;48.558;9.234;2022-10-16T01:02:21;97407.91;;;17.15;100.00
21980;BME280;11154;48.558;9.234;2022-10-16T01:04:23;97411.63;;;17.14;100.00
21980;BME280;11154;48.558;9.234;2022-10-16T01:06:30;97418.03;;;17.13;100.00
21980;BME280;11154;48.558;9.234;2022-10-16T01:08:39;97425.88;;;17.15;100.00
21980;BME280;11154;48.558;9.234;2022-10-16T01:10:49;97422.38;;;17.14;100.00
21980;BME280;11154;48.558;9.234;2022-10-16T01:12:58;97413.88;;;17.17;100.00
21980;BME280;11154;48.558;9.234;2022-10-16T01:15:05;97427.16;;;17.19;100.00
21980;BME280;11154;48.558;9.234;2022-10-16T01:17:12;97429.84;;;17.19;100.00
21980;BME280;11154;48.558;9.234;2022-10-16T01:19:20;97443.06;;;17.20;100.00
21980;BME280;11154;48.558;9.234;2022-10-16T01:21:28;97431.53;;;17.45;100.00
21980;BME280;11154;48.558;9.234;2022-10-16T01:23:38;97443.94;;;17.46;100.00
21980;BME280;11154;48.558;9.234;2022-10-16T01:26:07;97434.84;;;17.41;100.00
21980;BME280;11154;48.558;9.234;2022-10-16T01:28:15;97436.47;;;17.42;100.00
21980;BME280;11154;48.558;9.234;2022-10-16T01:30:23;97435.28;;;17.44;100.00
21980;BME280;11154;48.558;9.234;2022-10-16T01:32:31;97432.75;;;17.43;100.00
21980;BME280;11154;48.558;9.234;2022-10-16T01:34:38;97425.34;;;17.45;100.00
21980;BME280;11154;48.558;9.234;2022-10-16T01:36:47;97414.97;;;17.42;100.00
21980;BME280;11154;48.558;9.234;2022-10-16T01:38:52;97421.59;;;17.39;100.00
21980;BME280;11154;48.558;9.234;2022-10-16T01:41:00;97420.78;;;17.39;100.00
21980;BME280;11154;48.558;9.234;2022-10-16T01:43:05;97432.16;;;17.41;100.00
21980;BME280;11154;48.558;9.234;2022-10-16T01:45:12;97442.91;;;17.41;100.00
21980;BME280;11154;48.558;9.234;2022-10-16T01:47:19;97434.00;;;17.40;100.00
21980;BME280;11154;48.558;9.234;2022-10-16T01:49:26;97428.00;;;17.32;100.00
21980;BME280;11154;48.558;9.234;2022-10-16T01:51:29;97422.38;;;17.14;100.00
21980;BME280;11154;48.558;9.234;2022-10-16T01:53:32;97420.69;;;17.07;100.00
21980;BME280;11154;48.558;9.234;2022-10-16T01:55:36;97413.47;;;17.07;100.00
21980;BME280;11154;48.558;9.234;2022-10-16T01:57:42;97422.78;;;17.05;100.00
21980;BME280;11154;48.558;9.234;2022-10-16T01:59:47;97421.94;;;17.04;100.00
21980;BME280;11154;48.558;9.234;2022-10-16T02:01:54;97420.69;;;17.07;100.00
21980;BME280;11154;48.558;9.234;2022-10-16T02:04:00;97414.72;;;17.11;100.00
21980;BME280;11154;48.558;9.234;2022-10-16T02:06:04;97420.09;;;17.11;100.00
21980;BME280;11154;48.558;9.234;2022-10-16T02:08:06;97419.28;;;17.11;100.00
21980;BME280;11154;48.558;9.234;2022-10-16T02:10:08;97417.41;;;17.11;100.00
21980;BME280;11154;48.558;9.234;2022-10-16T02:12:15;97422.59;;;17.13;100.00
21980;BME280;11154;48.558;9.234;2022-10-16T02:14:17;97419.06;;;17.12;100.00
21980;BME280;11154;48.558;9.234;2022-10-16T02:16:20;97418.66;;;17.15;100.00
21980;BME280;11154;48.558;9.234;2022-10-16T02:18:23;97417.00;;;17.14;100.00
21980;BME280;11154;48.558;9.234;2022-10-16T02:20:33;97422.84;;;17.37;100.00
21980;BME280;11154;48.558;9.234;2022-10-16T02:22:39;97425.75;;;17.48;100.00
21980;BME280;11154;48.558;9.234;2022-10-16T02:24:48;97430.94;;;17.56;100.00
21980;BME280;11154;48.558;9.234;2022-10-16T02:26:52;97418.94;;;17.59;100.00
21980;BME280;11154;48.558;9.234;2022-10-16T02:29:00;97430.28;;;17.61;100.00
21980;BME280;11154;48.558;9.234;2022-10-16T02:31:07;97421.19;;;17.62;100.00
21980;BME280;11154;48.558;9.234;2022-10-16T02:33:12;97423.88;;;17.62;100.00
21980;BME280;11154;48.558;9.234;2022-10-16T02:35:17;97424.09;;;17.60;100.00
21980;BME280;11154;48.558;9.234;2022-10-16T02:37:20;97432.16;;;17.60;100.00
21980;BME280;11154;48.558;9.234;2022-10-16T02:39:21;97436.72;;;17.60;100.00
21980;BME280;11154;48.558;9.234;2022-10-16T02:41:23;97427.81;;;17.59;100.00
21980;BME280;11154;48.558;9.234;2022-10-16T02:43:25;97426.38;;;17.57;100.00
21980;BME280;11154;48.558;9.234;2022-10-16T02:45:27;97428.03;;;17.58;100.00
21980;BME280;11154;48.558;9.234;2022-10-16T02:47:29;97432.78;;;17.56;100.00
21980;BME280;11154;48.558;9.234;2022-10-16T02:49:31;97431.31;;;17.40;100.00
21980;BME280;11154;48.558;9.234;2022-10-16T02:51:34;97427.75;;;17.21;100.00
21980;BME280;11154;48.558;9.234;2022-10-16T02:53:35;97423.59;;;17.05;100.00
21980;BME280;11154;48.558;9.234;2022-10-16T02:55:37;97427.72;;;17.08;100.00
21980;BME280;11154;48.558;9.234;2022-10-16T02:57:38;97412.03;;;17.05;100.00
21980;BME280;11154;48.558;9.234;2022-10-16T02:59:40;97419.03;;;16.99;100.00
21980;BME280;11154;48.558;9.234;2022-10-16T03:01:42;97423.56;;;16.92;100.00
21980;BME280;11154;48.558;9.234;2022-10-16T03:03:43;97425.22;;;16.93;100.00
21980;BME280;11154;48.558;9.234;2022-10-16T03:05:45;97424.19;;;16.94;100.00
21980;BME280;11154;48.558;9.234;2022-10-16T03:07:48;97419.63;;;16.95;100.00
21980;BME280;11154;48.558;9.234;2022-10-16T03:09:49;97425.00;;;16.95;100.00
21980;BME280;11154;48.558;9.234;2022-10-16T03:11:51;97423.38;;;16.94;100.00
21980;BME280;11154;48.558;9.234;2022-10-16T03:13:52;97430.59;;;16.93;100.00
21980;BME280;11154;48.558;9.234;2022-10-16T03:15:54;97427.91;;;16.93;100.00
21980;BME280;11154;48.558;9.234;2022-10-16T03:17:57;97418.59;;;16.89;100.00
21980;BME280;11154;48.558;9.234;2022-10-16T03:19:58;97427.50;;;17.03;100.00
21980;BME280;11154;48.558;9.234;2022-10-16T03:22:00;97430.25;;;17.22;100.00
21980;BME280;11154;48.558;9.234;2022-10-16T03:24:04;97423.59;;;17.18;100.00
21980;BME280;11154;48.558;9.234;2022-10-16T03:26:05;97422.59;;;17.13;100.00
21980;BME280;11154;48.558;9.234;2022-10-16T03:28:07;97418.25;;;17.18;100.00
21980;BME280;11154;48.558;9.234;2022-10-16T03:30:10;97415.34;;;17.20;100.00
21980;BME280;11154;48.558;9.234;2022-10-16T03:32:11;97437.88;;;17.25;100.00
21980;BME280;11154;48.558;9.234;2022-10-16T03:34:13;97438.13;;;17.30;100.00
21980;BME280;11154;48.558;9.234;2022-10-16T03:36:15;97441.25;;;17.34;100.00
21980;BME280;11154;48.558;9.234;2022-10-16T03:38:16;97436.50;;;17.36;100.00
21980;BME280;11154;48.558;9.234;2022-10-16T03:40:19;97437.31;;;17.36;100.00
21980;BME280;11154;48.558;9.234;2022-10-16T03:42:21;97437.31;;;17.36;100.00
21980;BME280;11154;48.558;9.234;2022-10-16T03:44:24;97433.81;;;17.36;100.00
21980;BME280;11154;48.558;9.234;2022-10-16T03:46:26;97425.75;;;17.36;100.00
21980;BME280;11154;48.558;9.234;2022-10-16T03:48:28;97431.13;;;17.36;100.00
21980;BME280;11154;48.558;9.234;2022-10-16T03:50:30;97434.13;;;17.07;100.00
21980;BME280;11154;48.558;9.234;2022-10-16T03:52:31;97435.34;;;16.91;100.00
21980;BME280;11154;48.558;9.234;2022-10-16T03:54:33;97433.47;;;16.85;100.00
21980;BME280;11154;48.558;9.234;2022-10-16T03:56:36;97428.88;;;16.79;100.00
21980;BME280;11154;48.558;9.234;2022-10-16T03:58:37;97434.69;;;16.76;100.00
21980;BME280;11154;48.558;9.234;2022-10-16T04:00:40;97435.72;;;16.75;100.00
21980;BME280;11154;48.558;9.234;2022-10-16T04:02:42;97440.06;;;16.76;100.00
21980;BME280;11154;48.558;9.234;2022-10-16T04:04:43;97436.53;;;16.76;100.00
21980;BME280;11154;48.558;9.234;2022-10-16T04:06:45;97440.66;;;16.78;100.00
21980;BME280;11154;48.558;9.234;2022-10-16T04:08:47;97441.91;;;16.76;100.00
21980;BME280;11154;48.558;9.234;2022-10-16T04:10:48;97438.41;;;16.75;100.00
21980;BME280;11154;48.558;9.234;2022-10-16T04:12:51;97445.81;;;16.73;100.00
21980;BME280;11154;48.558;9.234;2022-10-16T04:14:54;97445.44;;;16.76;100.00
21980;BME280;11154;48.558;9.234;2022-10-16T04:16:56;97442.75;;;16.76;100.00
21980;BME280;11154;48.558;9.234;2022-10-16T04:18:57;97447.47;;;16.74;100.00
21980;BME280;11154;48.558;9.234;2022-10-16T04:21:02;97447.16;;;17.03;100.00
21980;BME280;11154;48.558;9.234;2022-10-16T04:23:04;97448.63;;;17.12;100.00
21980;BME280;11154;48.558;9.234;2022-10-16T04:25:06;97455.47;;;17.21;100.00
21980;BME280;11154;48.558;9.234;2022-10-16T04:27:07;97453.00;;;17.26;100.00
21980;BME280;11154;48.558;9.234;2022-10-16T04:29:11;97453.22;;;17.31;100.00
21980;BME280;11154;48.558;9.234;2022-10-16T04:31:12;97454.50;;;17.35;100.00
21980;BME280;11154;48.558;9.234;2022-10-16T04:33:14;97454.06;;;17.38;100.00
21980;BME280;11154;48.558;9.234;2022-10-16T04:35:16;97452.63;;;17.42;100.00
21980;BME280;11154;48.558;9.234;2022-10-16T04:37:18;97455.72;;;17.45;100.00
21980;BME280;11154;48.558;9.234;2022-10-16T04:39:20;97451.81;;;17.48;100.00
21980;BME280;11154;48.558;9.234;2022-10-16T04:41:21;97449.72;;;17.50;100.00
21980;BME280;11154;48.558;9.234;2022-10-16T04:43:23;97451.38;;;17.51;100.00
21980;BME280;11154;48.558;9.234;2022-10-16T04:45:26;97446.00;;;17.51;100.00
21980;BME280;11154;48.558;9.234;2022-10-16T04:47:27;97451.81;;;17.54;100.00
21980;BME280;11154;48.558;9.234;2022-10-16T04:49:29;97443.53;;;17.37;100.00
21980;BME280;11154;48.558;9.234;2022-10-16T04:51:31;97443.88;;;17.14;100.00
21980;BME280;11154;48.558;9.234;2022-10-16T04:53:33;97450.88;;;17.02;100.00
21980;BME280;11154;48.558;9.234;2022-10-16T04:55:34;97450.03;;;16.95;100.00
21980;BME280;11154;48.558;9.234;2022-10-16T04:57:36;97457.88;;;16.90;100.00
21980;BME280;11154;48.558;9.234;2022-10-16T04:59:38;97457.03;;;16.83;100.00
21980;BME280;11154;48.558;9.234;2022-10-16T05:01:41;97465.69;;;16.79;100.00
21980;BME280;11154;48.558;9.234;2022-10-16T05:03:42;97461.94;;;16.73;100.00
21980;BME280;11154;48.558;9.234;2022-10-16T05:05:45;97461.31;;;16.71;100.00
21980;BME280;11154;48.558;9.234;2022-10-16T05:07:47;97469.56;;;16.70;100.00
21980;BME280;11154;48.558;9.234;2022-10-16T05:09:49;97467.72;;;16.70;100.00
21980;BME280;11154;48.558;9.234;2022-10-16T05:11:51;97473.25;;;16.69;100.00
21980;BME280;11154;48.558;9.234;2022-10-16T05:13:52;97475.13;;;16.68;100.00
21980;BME280;11154;48.558;9.234;2022-10-16T05:15:54;97476.81;;;16.69;100.00
21980;BME280;11154;48.558;9.234;2022-10-16T05:17:57;97472.25;;;16.70;100.00
21980;BME280;11154;48.558;9.234;2022-10-16T05:19:58;97481.00;;;16.85;100.00
21980;BME280;11154;48.558;9.234;2022-10-16T05:22:00;97483.13;;;17.02;100.00
21980;BME280;11154;48.558;9.234;2022-10-16T05:24:02;97482.31;;;17.08;100.00
21980;BME280;11154;48.558;9.234;2022-10-16T05:26:04;97480.88;;;17.12;100.00
21980;BME280;11154;48.558;9.234;2022-10-16T05:28:06;97481.28;;;17.16;100.00
21980;BME280;11154;48.558;9.234;2022-10-16T05:30:08;97485.03;;;17.21;100.00
21980;BME280;11154;48.558;9.234;2022-10-16T05:32:09;97475.09;;;17.15;100.00
21980;BME280;11154;48.558;9.234;2022-10-16T05:34:12;97490.19;;;17.16;100.00
21980;BME280;11154;48.558;9.234;2022-10-16T05:36:14;97480.47;;;17.15;100.00
21980;BME280;11154;48.558;9.234;2022-10-16T05:38:16;97491.22;;;17.15;100.00
21980;BME280;11154;48.558;9.234;2022-10-16T05:40:17;97495.56;;;17.16;100.00
21980;BME280;11154;48.558;9.234;2022-10-16T05:42:19;97484.19;;;17.14;100.00
21980;BME280;11154;48.558;9.234;2022-10-16T05:44:20;97487.91;;;17.13;100.00
21980;BME280;11154;48.558;9.234;2022-10-16T05:46:22;97497.63;;;17.14;100.00
21980;BME280;11154;48.558;9.234;2022-10-16T05:48:24;97493.47;;;17.12;100.00
21980;BME280;11154;48.558;9.234;2022-10-16T05:50:27;97496.28;;;16.84;100.00
21980;BME280;11154;48.558;9.234;2022-10-16T05:52:29;97503.88;;;16.74;100.00
21980;BME280;11154;48.558;9.234;2022-10-16T05:54:30;97500.75;;;16.64;100.00
21980;BME280;11154;48.558;9.234;2022-10-16T05:56:32;97504.22;;;16.59;100.00
21980;BME280;11154;48.558;9.234;2022-10-16T05:58:35;97506.66;;;16.54;100.00
21980;BME280;11154;48.558;9.234;2022-10-16T06:00:37;97505.63;;;16.48;100.00
21980;BME280;11154;48.558;9.234;2022-10-16T06:02:38;97503.31;;;16.45;100.00
21980;BME280;11154;48.558;9.234;2022-10-16T06:04:40;97505.34;;;16.43;100.00
21980;BME280;11154;48.558;9.234;2022-10-16T06:06:43;97513.00;;;16.40;100.00
21980;BME280;11154;48.558;9.234;2022-10-16T06:08:45;97515.03;;;16.38;100.00
21980;BME280;11154;48.558;9.234;2022-10-16T06:10:47;97518.38;;;16.40;100.00
21980;BME280;11154;48.558;9.234;2022-10-16T06:12:49;97520.00;;;16.41;100.00
21980;BME280;11154;48.558;9.234;2022-10-16T06:14:50;97521.66;;;16.42;100.00
21980;BME280;11154;48.558;9.234;2022-10-16T06:16:52;97530.56;;;16.42;100.00
21980;BME280;11154;48.558;9.234;2022-10-16T06:18:55;97525.00;;;16.44;100.00
21980;BME280;11154;48.558;9.234;2022-10-16T06:20:57;97526.78;;;16.70;100.00
21980;BME280;11154;48.558;9.234;2022-10-16T06:23:00;97525.59;;;16.79;100.00
21980;BME280;11154;48.558;9.234;2022-10-16T06:25:02;97526.06;;;16.89;100.00
21980;BME280;11154;48.558;9.234;2022-10-16T06:27:04;97541.38;;;16.95;100.00
21980;BME280;11154;48.558;9.234;2022-10-16T06:29:05;97538.09;;;17.00;100.00
21980;BME280;11154;48.558;9.234;2022-10-16T06:31:08;97540.16;;;17.04;100.00
21980;BME280;11154;48.558;9.234;2022-10-16T06:33:10;97546.59;;;17.03;100.00
21980;BME280;11154;48.558;9.234;2022-10-16T06:35:12;97539.75;;;17.07;100.00
21980;BME280;11154;48.558;9.234;2022-10-16T06:37:13;97547.63;;;17.09;100.00
21980;BME280;11154;48.558;9.234;2022-10-16T06:39:16;97542.66;;;17.12;100.00
21980;BME280;11154;48.558;9.234;2022-10-16T06:41:19;97544.13;;;17.15;100.00
21980;BME280;11154;48.558;9.234;2022-10-16T06:43:21;97543.53;;;17.19;100.00
21980;BME280;11154;48.558;9.234;2022-10-16T06:45:23;97546.00;;;17.21;100.00
21980;BME280;11154;48.558;9.234;2022-10-16T06:47:24;97556.38;;;17.24;100.00
21980;BME280;11154;48.558;9.234;2022-10-16T06:49:26;97560.31;;;17.28;100.00
21980;BME280;11154;48.558;9.234;2022-10-16T06:51:28;97565.09;;;17.32;100.00
21980;BME280;11154;48.558;9.234;2022-10-16T06:53:34;97565.75;;;17.34;100.00
21980;BME280;11154;48.558;9.234;2022-10-16T06:55:37;97571.34;;;17.39;100.00
21980;BME280;11154;48.558;9.234;2022-10-16T06:57:39;97558.41;;;17.22;100.00
21980;BME280;11154;48.558;9.234;2022-10-16T06:59:40;97551.38;;;17.14;100.00
21980;BME280;11154;48.558;9.234;2022-10-16T07:01:42;97557.13;;;17.11;100.00
21980;BME280;11154;48.558;9.234;2022-10-16T07:03:44;97561.69;;;17.11;100.00
21980;BME280;11154;48.558;9.234;2022-10-16T07:05:46;97576.34;;;17.08;100.00
21980;BME280;11154;48.558;9.234;2022-10-16T07:07:48;97575.13;;;17.11;100.00
21980;BME280;11154;48.558;9.234;2022-10-16T07:09:49;97578.44;;;17.13;100.00
21980;BME280;11154;48.558;9.234;2022-10-16T07:11:52;97576.19;;;17.16;100.00
21980;BME280;11154;48.558;9.234;2022-10-16T07:13:54;97582.97;;;17.12;100.00
21980;BME280;11154;48.558;9.234;2022-10-16T07:15:56;97586.50;;;17.13;100.00
21980;BME280;11154;48.558;9.234;2022-10-16T07:17:57;97584.63;;;17.13;100.00
21980;BME280;11154;48.558;9.234;2022-10-16T07:19:59;97588.78;;;17.16;100.00
21980;BME280;11154;48.558;9.234;2022-10-16T07:22:01;97587.34;;;17.20;100.00
21980;BME280;11154;48.558;9.234;2022-10-16T07:24:05;97593.16;;;17.23;100.00
21980;BME280;11154;48.558;9.234;2022-10-16T07:26:07;97589.06;;;17.27;100.00
21980;BME280;11154;48.558;9.234;2022-10-16T07:28:10;97610.25;;;17.49;100.00
21980;BME280;11154;48.558;9.234;2022-10-16T07:30:12;97610.47;;;17.61;100.00
21980;BME280;11154;48.558;9.234;2022-10-16T07:32:13;97613.41;;;17.66;100.00
21980;BME280;11154;48.558;9.234;2022-10-16T07:34:16;97611.97;;;17.70;100.00
21980;BME280;11154;48.558;9.234;2022-10-16T07:36:19;97609.91;;;17.72;100.00
21980;BME280;11154;48.558;9.234;2022-10-16T07:38:21;97607.38;;;17.70;100.00
21980;BME280;11154;48.558;9.234;2022-10-16T07:40:23;97624.59;;;17.69;100.00
21980;BME280;11154;48.558;9.234;2022-10-16T07:42:27;97643.22;;;17.71;100.00
21980;BME280;11154;48.558;9.234;2022-10-16T07:44:30;97640.50;;;17.71;100.00
21980;BME280;11154;48.558;9.234;2022-10-16T07:46:32;97639.66;;;17.70;100.00
21980;BME280;11154;48.558;9.234;2022-10-16T07:48:36;97655.00;;;17.70;100.00
21980;BME280;11154;48.558;9.234;2022-10-16T07:50:37;97658.09;;;17.67;100.00
21980;BME280;11154;48.558;9.234;2022-10-16T07:52:39;97645.47;;;17.67;100.00
21980;BME280;11154;48.558;9.234;2022-10-16T07:54:40;97642.56;;;17.69;100.00
21980;BME280;11154;48.558;9.234;2022-10-16T07:56:42;97636.81;;;17.72;100.00
21980;BME280;11154;48.558;9.234;2022-10-16T07:58:44;97637.22;;;17.75;100.00
21980;BME280;11154;48.558;9.234;2022-10-16T08:00:47;97648.63;;;17.84;100.00
21980;BME280;11154;48.558;9.234;2022-10-16T08:02:49;97642.34;;;17.70;100.00
21980;BME280;11154;48.558;9.234;2022-10-16T08:04:51;97651.88;;;17.66;100.00
21980;BME280;11154;48.558;9.234;2022-10-16T08:06:52;97649.41;;;17.71;100.00
21980;BME280;11154;48.558;9.234;2022-10-16T08:08:54;97662.88;;;17.78;100.00
21980;BME280;11154;48.558;9.234;2022-10-16T08:10:56;97656.28;;;17.80;100.00
21980;BME280;11154;48.558;9.234;2022-10-16T08:12:58;97653.38;;;17.82;100.00
21980;BME280;11154;48.558;9.234;2022-10-16T08:15:00;97654.00;;;17.84;100.00
21980;BME280;11154;48.558;9.234;2022-10-16T08:17:02;97645.13;;;17.90;100.00
21980;BME280;11154;48.558;9.234;2022-10-16T08:19:04;97648.03;;;17.95;100.00
21980;BME280;11154;48.558;9.234;2022-10-16T08:21:07;97649.88;;;18.01;100.00
21980;BME280;11154;48.558;9.234;2022-10-16T08:23:09;97659.66;;;18.08;100.00
21980;BME280;11154;48.558;9.234;2022-10-16T08:25:12;97656.75;;;18.09;100.00
21980;BME280;11154;48.558;9.234;2022-10-16T08:27:13;97665.03;;;18.14;100.00
21980;BME280;11154;48.558;9.234;2022-10-16T08:29:15;97666.28;;;18.18;100.00
21980;BME280;11154;48.558;9.234;2022-10-16T08:31:17;97670.25;;;18.22;100.00
21980;BME280;11154;48.558;9.234;2022-10-16T08:33:20;97679.59;;;18.39;100.00
21980;BME280;11154;48.558;9.234;2022-10-16T08:35:21;97669.25;;;18.56;100.00
21980;BME280;11154;48.558;9.234;2022-10-16T08:37:23;97676.72;;;18.60;100.00
21980;BME280;11154;48.558;9.234;2022-10-16T08:39:24;97680.44;;;18.72;100.00
21980;BME280;11154;48.558;9.234;2022-10-16T08:41:50;97680.63;;;18.83;100.00
21980;BME280;11154;48.558;9.234;2022-10-16T08:44:18;97672.72;;;18.95;100.00
21980;BME280;11154;48.558;9.234;2022-10-16T08:46:34;97677.91;;;19.03;100.00
21980;BME280;11154;48.558;9.234;2022-10-16T08:48:46;97686.19;;;19.08;100.00
21980;BME280;11154;48.558;9.234;2022-10-16T08:50:50;97684.16;;;19.10;100.00
21980;BME280;11154;48.558;9.234;2022-10-16T08:52:52;97679.97;;;19.14;100.00
21980;BME280;11154;48.558;9.234;2022-10-16T08:54:55;97687.44;;;19.18;100.00
21980;BME280;11154;48.558;9.234;2022-10-16T08:57:00;97695.75;;;19.17;100.00
21980;BME280;11154;48.558;9.234;2022-10-16T08:59:10;97689.31;;;19.18;100.00
21980;BME280;11154;48.558;9.234;2022-10-16T09:01:13;97689.91;;;19.20;100.00
21980;BME280;11154;48.558;9.234;2022-10-16T09:03:28;97691.59;;;19.21;100.00
21980;BME280;11154;48.558;9.234;2022-10-16T09:05:49;97700.94;;;19.25;100.00
21980;BME280;11154;48.558;9.234;2022-10-16T09:08:01;97693.47;;;19.20;100.00
21980;BME280;11154;48.558;9.234;2022-10-16T09:10:24;97700.09;;;19.18;100.00
21980;BME280;11154;48.558;9.234;2022-10-16T09:12:31;97706.53;;;19.17;100.00
21980;BME280;11154;48.558;9.234;2022-10-16T09:14:47;97696.38;;;19.12;100.00
21980;BME280;11154;48.558;9.234;2022-10-16T09:16:54;97703.66;;;19.12;100.00
21980;BME280;11154;48.558;9.234;2022-10-16T09:19:04;97710.25;;;19.16;100.00
21980;BME280;11154;48.558;9.234;2022-10-16T09:21:15;97701.56;;;19.20;100.00
21980;BME280;11154;48.558;9.234;2022-10-16T09:23:24;97716.06;;;19.26;100.00
21980;BME280;11154;48.558;9.234;2022-10-16T09:25:27;97718.75;;;19.32;100.00
21980;BME280;11154;48.558;9.234;2022-10-16T09:27:29;97720.59;;;19.38;100.00
21980;BME280;11154;48.558;9.234;2022-10-16T09:29:30;97709.19;;;19.43;100.00
21980;BME280;11154;48.558;9.234;2022-10-16T09:31:35;97714.75;;;19.48;100.00
21980;BME280;11154;48.558;9.234;2022-10-16T09:33:39;97718.91;;;19.57;100.00
21980;BME280;11154;48.558;9.234;2022-10-16T09:35:43;97720.75;;;19.62;100.00
21980;BME280;11154;48.558;9.234;2022-10-16T09:37:49;97719.88;;;19.68;100.00
21980;BME280;11154;48.558;9.234;2022-10-16T09:39:53;97713.84;;;19.73;100.00
21980;BME280;11154;48.558;9.234;2022-10-16T09:41:55;97714.03;;;19.78;100.00
21980;BME280;11154;48.558;9.234;2022-10-16T09:43:59;97711.75;;;19.81;100.00
21980;BME280;11154;48.558;9.234;2022-10-16T09:46:03;97709.84;;;19.88;100.00
21980;BME280;11154;48.558;9.234;2022-10-16T09:48:11;97716.66;;;19.97;100.00
21980;BME280;11154;48.558;9.234;2022-10-16T09:50:21;97720.81;;;20.00;100.00
21980;BME280;11154;48.558;9.234;2022-10-16T09:52:24;97715.81;;;20.03;100.00
21980;BME280;11154;48.558;9.234;2022-10-16T09:54:27;97721.41;;;20.08;100.00
21980;BME280;11154;48.558;9.234;2022-10-16T09:56:30;97720.97;;;20.11;100.00
21980;BME280;11154;48.558;9.234;2022-10-16T09:58:33;97709.94;;;20.13;100.00
21980;BME280;11154;48.558;9.234;2022-10-16T10:00:34;97711.59;;;20.14;100.00
21980;BME280;11154;48.558;9.234;2022-10-16T10:02:37;97725.50;;;20.17;100.00
21980;BME280;11154;48.558;9.234;2022-10-16T10:04:43;97729.03;;;20.18;100.00
21980;BME280;11154;48.558;9.234;2022-10-16T10:06:47;97730.28;;;20.15;100.00
21980;BME280;11154;48.558;9.234;2022-10-16T10:08:58;97728.19;;;20.17;100.00
21980;BME280;11154;48.558;9.234;2022-10-16T10:11:01;97729.44;;;20.21;100.00
21980;BME280;11154;48.558;9.234;2022-10-16T10:13:03;97724.41;;;20.25;100.00
21980;BME280;11154;48.558;9.234;2022-10-16T10:15:06;97723.16;;;20.27;100.00
21980;BME280;11154;48.558;9.234;2022-10-16T10:17:15;97731.66;;;20.31;100.00
21980;BME280;11154;48.558;9.234;2022-10-16T10:19:18;97725.00;;;20.33;100.00
21980;BME280;11154;48.558;9.234;2022-10-16T10:21:20;97724.38;;;20.31;100.00
21980;BME280;11154;48.558;9.234;2022-10-16T10:23:24;97716.28;;;20.31;100.00
21980;BME280;11154;48.558;9.234;2022-10-16T10:25:49;97718.56;;;20.34;100.00
21980;BME280;11154;48.558;9.234;2022-10-16T10:28:13;97723.09;;;20.40;100.00
21980;BME280;11154;48.558;9.234;2022-10-16T10:30:21;97718.44;;;20.47;100.00
21980;BME280;11154;48.558;9.234;2022-10-16T10:32:27;97717.22;;;20.49;100.00
21980;BME280;11154;48.558;9.234;2022-10-16T10:34:52;97712.19;;;20.53;100.00
21980;BME280;11154;48.558;9.234;2022-10-16T10:37:02;97710.69;;;20.57;100.00
21980;BME280;11154;48.558;9.234;2022-10-16T10:39:09;97705.84;;;20.65;100.00
21980;BME280;11154;48.558;9.234;2022-10-16T10:44:02;97712.28;;;20.64;100.00
21980;BME280;11154;48.558;9.234;2022-10-16T10:46:10;97707.91;;;20.70;100.00
21980;BME280;11154;48.558;9.234;2022-10-16T10:48:22;97713.28;;;20.76;100.00
21980;BME280;11154;48.558;9.234;2022-10-16T10:50:39;97715.31;;;20.81;100.00